createdAt,value
2022-12-18T00:04:46.719Z,1012.18
2022-12-18T00:09:46.583Z,1012.17
2022-12-18T00:14:46.575Z,1012.45
2022-12-18T00:19:46.415Z,1012.48
2022-12-18T00:24:46.426Z,1012.56
2022-12-18T00:29:46.340Z,1012.52
2022-12-18T00:34:46.292Z,1012.45
2022-12-18T00:39:47.239Z,1012.39
2022-12-18T00:44:46.140Z,1012.34
2022-12-18T00:49:46.077Z,1012.33
2022-12-18T00:54:46.082Z,1012.28
2022-12-18T00:59:46.109Z,1012.32
2022-12-18T01:04:46.047Z,1012.34
2022-12-18T01:09:45.842Z,1012.30
2022-12-18T01:14:45.932Z,1012.32
2022-12-18T01:19:45.791Z,1012.33
2022-12-18T01:24:45.798Z,1012.37
2022-12-18T01:29:45.735Z,1012.43
2022-12-18T01:34:45.626Z,1012.43
2022-12-18T01:39:45.624Z,1012.41
2022-12-18T01:44:45.597Z,1012.38
2022-12-18T01:49:45.490Z,1012.27
2022-12-18T01:54:45.511Z,1012.30
2022-12-18T01:59:45.388Z,1012.27
2022-12-18T02:04:49.341Z,1012.24
2022-12-18T02:09:45.369Z,1012.31
2022-12-18T02:14:47.238Z,1012.31
2022-12-18T02:19:45.297Z,1012.31
2022-12-18T02:24:45.069Z,1012.37
2022-12-18T02:29:45.100Z,1012.27
2022-12-18T02:34:44.997Z,1012.17
2022-12-18T02:39:44.952Z,1012.15
2022-12-18T02:44:45.044Z,1012.06
2022-12-18T02:49:45.006Z,1012.11
2022-12-18T02:54:44.830Z,1012.09
2022-12-18T02:59:44.743Z,1012.13
2022-12-18T03:04:44.758Z,1012.09
2022-12-18T03:09:44.619Z,1012.16
2022-12-18T03:14:44.607Z,1012.06
2022-12-18T03:19:44.501Z,1012.10
2022-12-18T03:24:44.459Z,1011.98
2022-12-18T03:29:44.441Z,1011.89
2022-12-18T03:34:44.404Z,1011.85
2022-12-18T03:39:44.293Z,1011.89
2022-12-18T03:44:44.310Z,1011.92
2022-12-18T03:49:44.322Z,1011.84
2022-12-18T03:54:44.262Z,1011.87
2022-12-18T03:59:44.175Z,1011.79
2022-12-18T04:04:44.054Z,1011.73
2022-12-18T04:09:44.018Z,1011.77
2022-12-18T04:14:43.952Z,1011.87
2022-12-18T04:19:43.877Z,1011.83
2022-12-18T04:24:43.997Z,1011.83
2022-12-18T04:29:43.897Z,1011.81
2022-12-18T04:34:43.913Z,1011.85
2022-12-18T04:39:45.732Z,1011.84
2022-12-18T04:44:43.662Z,1011.79
2022-12-18T04:49:43.741Z,1011.71
2022-12-18T04:54:43.532Z,1011.65
2022-12-18T04:59:43.479Z,1011.66
2022-12-18T05:04:43.518Z,1011.69
2022-12-18T05:09:43.476Z,1011.55
2022-12-18T05:14:43.424Z,1011.53
2022-12-18T05:19:43.350Z,1011.54
2022-12-18T05:24:43.196Z,1011.44
2022-12-18T05:29:43.131Z,1011.42
2022-12-18T05:34:43.105Z,1011.43
2022-12-18T05:39:43.040Z,1011.43
2022-12-18T05:44:42.977Z,1011.44
2022-12-18T05:49:43.025Z,1011.55
2022-12-18T05:54:42.958Z,1011.55
2022-12-18T05:59:46.264Z,1011.58
2022-12-18T06:04:42.816Z,1011.58
2022-12-18T06:09:42.820Z,1011.69
2022-12-18T06:14:42.648Z,1011.75
2022-12-18T06:19:42.608Z,1012.04
2022-12-18T06:24:42.656Z,1012.14
2022-12-18T06:29:42.548Z,1012.13
2022-12-18T06:34:42.436Z,1012.03
2022-12-18T06:39:42.388Z,1012.04
2022-12-18T06:44:42.342Z,1012.00
2022-12-18T06:49:42.329Z,1011.85
2022-12-18T06:54:42.215Z,1011.82
2022-12-18T06:59:42.166Z,1011.67
2022-12-18T07:04:42.103Z,1011.63
2022-12-18T07:09:42.036Z,1011.58
2022-12-18T07:14:42.066Z,1011.56
2022-12-18T07:19:43.014Z,1011.49
2022-12-18T07:24:41.988Z,1011.58
2022-12-18T07:29:41.889Z,1011.51
2022-12-18T07:34:41.927Z,1011.54
2022-12-18T07:39:41.748Z,1011.37
2022-12-18T07:44:41.685Z,1011.20
2022-12-18T07:49:41.653Z,1011.27
2022-12-18T07:54:41.539Z,1011.30
2022-12-18T07:59:41.555Z,1011.24
2022-12-18T08:04:41.484Z,1011.29
2022-12-18T08:09:41.517Z,1011.36
2022-12-18T08:14:41.383Z,1011.33
2022-12-18T08:19:41.295Z,1011.23
2022-12-18T08:24:41.245Z,1011.17
2022-12-18T08:29:41.253Z,1011.12
2022-12-18T08:34:41.288Z,1011.00
2022-12-18T08:39:41.123Z,1010.89
2022-12-18T08:44:41.089Z,1010.84
2022-12-18T08:49:41.008Z,1010.88
2022-12-18T08:54:40.923Z,1010.68
2022-12-18T08:59:41.961Z,1010.71
2022-12-18T09:04:40.982Z,1010.76
2022-12-18T09:09:40.862Z,1010.60
2022-12-18T09:14:40.679Z,1010.62
2022-12-18T09:19:40.708Z,1010.46
2022-12-18T09:24:40.583Z,1010.42
2022-12-18T09:29:40.598Z,1010.46
2022-12-18T09:34:40.519Z,1010.41
2022-12-18T09:39:40.469Z,1010.44
2022-12-18T09:44:45.187Z,1010.33
2022-12-18T09:49:41.404Z,1010.41
2022-12-18T09:54:40.858Z,1010.41
2022-12-18T09:59:43.674Z,1010.62
2022-12-18T10:04:40.427Z,1010.50
2022-12-18T10:09:40.120Z,1010.29
2022-12-18T10:14:40.247Z,1010.10
2022-12-18T10:19:40.147Z,1009.96
2022-12-18T10:24:39.946Z,1009.78
2022-12-18T10:29:40.015Z,1009.71
2022-12-18T10:34:39.892Z,1009.69
2022-12-18T10:39:40.863Z,1009.65
2022-12-18T10:44:40.026Z,1009.61
2022-12-18T10:49:39.837Z,1009.65
2022-12-18T10:54:39.777Z,1009.47
2022-12-18T10:59:39.631Z,1009.46
2022-12-18T11:04:39.575Z,1009.34
2022-12-18T11:09:39.490Z,1009.31
2022-12-18T11:14:43.548Z,1009.28
2022-12-18T11:19:40.384Z,1009.31
2022-12-18T11:24:39.376Z,1009.25
2022-12-18T11:29:48.116Z,1009.13
2022-12-18T11:34:39.252Z,1009.12
2022-12-18T11:39:39.114Z,1008.98
2022-12-18T11:44:39.077Z,1008.77
2022-12-18T11:49:39.092Z,1008.61
2022-12-18T11:54:39.001Z,1008.43
2022-12-18T11:59:39.187Z,1008.47
2022-12-18T12:04:38.983Z,1008.42
2022-12-18T12:09:38.946Z,1008.36
2022-12-18T12:14:38.925Z,1008.45
2022-12-18T12:19:38.793Z,1008.48
2022-12-18T12:24:38.863Z,1008.48
2022-12-18T12:29:38.900Z,1008.40
2022-12-18T12:34:38.651Z,1008.32
2022-12-18T12:39:38.631Z,1008.28
2022-12-18T12:44:38.606Z,1008.32
2022-12-18T12:49:40.786Z,1008.28
2022-12-18T12:54:38.546Z,1008.31
2022-12-18T12:59:38.530Z,1008.27
2022-12-18T13:04:38.376Z,1008.22
2022-12-18T13:09:38.195Z,1008.23
2022-12-18T13:14:39.246Z,1008.28
2022-12-18T13:19:38.210Z,1008.28
2022-12-18T13:24:38.209Z,1008.28
2022-12-18T13:29:38.126Z,1008.26
2022-12-18T13:34:39.025Z,1008.23
2022-12-18T13:39:37.869Z,1008.15
2022-12-18T13:44:41.081Z,1008.06
2022-12-18T13:49:37.854Z,1008.22
2022-12-18T13:54:37.803Z,1008.09
2022-12-18T13:59:37.716Z,1007.97
2022-12-18T14:04:38.683Z,1007.95
2022-12-18T14:09:39.572Z,1007.74
2022-12-18T14:14:37.590Z,1007.66
2022-12-18T14:19:37.552Z,1007.68
2022-12-18T14:24:37.400Z,1007.62
2022-12-18T14:29:37.338Z,1007.43
2022-12-18T14:34:37.308Z,1007.35
2022-12-18T14:39:37.198Z,1007.35
2022-12-18T14:44:50.540Z,1007.39
2022-12-18T14:49:38.147Z,1007.40
2022-12-18T14:54:36.992Z,1007.28
2022-12-18T14:59:37.037Z,1007.17
2022-12-18T15:04:37.871Z,1007.18
2022-12-18T15:09:36.881Z,1007.15
2022-12-18T15:14:36.831Z,1007.17
2022-12-18T15:19:36.793Z,1007.12
2022-12-18T15:24:36.704Z,1007.11
2022-12-18T15:29:36.759Z,1006.98
2022-12-18T15:34:36.641Z,1006.93
2022-12-18T15:39:36.567Z,1006.92
2022-12-18T15:44:37.510Z,1006.92
2022-12-18T15:49:36.421Z,1006.92
2022-12-18T15:54:36.504Z,1006.83
2022-12-18T15:59:36.363Z,1006.76
2022-12-18T16:04:36.251Z,1006.81
2022-12-18T16:09:36.260Z,1006.74
2022-12-18T16:14:36.158Z,1006.74
2022-12-18T16:19:36.215Z,1006.87
2022-12-18T16:24:36.207Z,1006.75
2022-12-18T16:29:37.052Z,1006.79
2022-12-18T16:34:36.289Z,1006.79
2022-12-18T16:39:36.279Z,1006.91
2022-12-18T16:44:35.919Z,1006.86
2022-12-18T16:49:35.910Z,1006.76
2022-12-18T16:54:35.925Z,1006.82
2022-12-18T16:59:35.778Z,1006.67
2022-12-18T17:04:35.791Z,1006.68
2022-12-18T17:09:38.303Z,1006.61
2022-12-18T17:14:36.709Z,1006.35
2022-12-18T17:19:36.449Z,1006.21
2022-12-18T17:24:35.733Z,1006.27
2022-12-18T17:29:35.414Z,1006.32
2022-12-18T17:34:44.151Z,1006.29
2022-12-18T17:39:35.301Z,1006.35
2022-12-18T17:44:35.206Z,1006.40
2022-12-18T17:49:35.178Z,1006.36
2022-12-18T17:54:35.166Z,1006.48
2022-12-18T17:59:34.985Z,1006.56
2022-12-18T18:04:34.947Z,1006.56
2022-12-18T18:09:34.866Z,1006.61
2022-12-18T18:14:35.047Z,1006.53
2022-12-18T18:19:35.979Z,1006.54
2022-12-18T18:24:34.736Z,1006.58
2022-12-18T18:29:34.751Z,1006.64
2022-12-18T18:34:34.690Z,1006.64
2022-12-18T18:39:34.532Z,1006.68
2022-12-18T18:44:34.491Z,1006.55
2022-12-18T18:49:34.476Z,1006.62
2022-12-18T18:54:34.461Z,1006.59
2022-12-18T18:59:34.328Z,1006.67
2022-12-18T19:04:34.285Z,1006.70
2022-12-18T19:09:34.209Z,1006.76
2022-12-18T19:14:34.170Z,1006.74
2022-12-18T19:19:34.128Z,1006.71
2022-12-18T19:24:34.035Z,1006.65
2022-12-18T19:29:34.007Z,1006.64
2022-12-18T19:34:33.969Z,1006.61
2022-12-18T19:39:33.914Z,1006.63
2022-12-18T19:44:33.798Z,1006.61
2022-12-18T19:49:33.858Z,1006.51
2022-12-18T19:54:33.751Z,1006.47
2022-12-18T19:59:33.807Z,1006.54
2022-12-18T20:04:33.661Z,1006.53
2022-12-18T20:09:33.589Z,1006.56
2022-12-18T20:14:33.491Z,1006.58
2022-12-18T20:19:34.405Z,1006.65
2022-12-18T20:24:33.458Z,1006.73
2022-12-18T20:29:33.386Z,1006.69
2022-12-18T20:34:33.344Z,1006.69
2022-12-18T20:39:33.329Z,1006.73
2022-12-18T20:44:33.252Z,1006.79
2022-12-18T20:49:33.191Z,1006.93
2022-12-18T20:54:33.210Z,1006.85
2022-12-18T20:59:33.048Z,1006.86
2022-12-18T21:04:32.969Z,1006.77
2022-12-18T21:09:37.146Z,1006.80
2022-12-18T21:14:33.864Z,1006.76
2022-12-18T21:19:32.827Z,1006.81
2022-12-18T21:24:33.137Z,1006.81
2022-12-18T21:29:32.683Z,1006.82
2022-12-18T21:34:32.688Z,1006.78
2022-12-18T21:39:32.690Z,1006.80
2022-12-18T21:44:38.064Z,1006.81
2022-12-18T21:49:33.602Z,1006.81
2022-12-18T21:54:32.449Z,1006.83
2022-12-18T21:59:32.403Z,1006.80
2022-12-18T22:04:32.360Z,1006.69
2022-12-18T22:09:32.248Z,1006.56
2022-12-18T22:14:32.247Z,1006.47
2022-12-18T22:19:32.286Z,1006.46
2022-12-18T22:24:32.185Z,1006.36
2022-12-18T22:29:33.159Z,1006.29
2022-12-18T22:34:36.405Z,1006.29
2022-12-18T22:39:31.957Z,1006.24
2022-12-18T22:44:31.962Z,1006.20
2022-12-18T22:49:31.954Z,1006.05
2022-12-18T22:54:31.751Z,1006.00
2022-12-18T22:59:31.718Z,1006.00
2022-12-18T23:04:36.679Z,1005.98
2022-12-18T23:09:32.592Z,1005.90
2022-12-18T23:14:33.656Z,1005.85
2022-12-18T23:19:31.672Z,1005.80
2022-12-18T23:24:31.450Z,1005.73
2022-12-18T23:29:31.559Z,1005.53
2022-12-18T23:34:31.356Z,1005.51
2022-12-18T23:39:31.308Z,1005.30
2022-12-18T23:44:31.259Z,1005.27
2022-12-18T23:49:31.184Z,1005.26
2022-12-18T23:54:32.896Z,1005.29
2022-12-18T23:59:31.035Z,1005.16
